Time;durP1;ratioP1;P1;durP2;ratioP2;P2;SDS_P1;SDS_P2;PMS_P1;PMS_P2;Temp;Humidity;BMP_temperature;BMP_pressure;BME280_temperature;BME280_humidity;BME280_pressure;Samples;Min_cycle;Max_cycle;Signal;HPM_P1;HPM_P2
2022/04/05 00:02:15;;;;;;;16.87;11.57;;;7.40;31.60;;;;;;5110844;28;20180;-73
2022/04/05 00:04:41;;;;;;;20.57;12.50;;;7.50;31.20;;;;;;5105067;28;20281;-73
2022/04/05 00:07:07;;;;;;;18.52;11.00;;;8.20;29.90;;;;;;5115124;28;20278;-73
2022/04/05 00:09:32;;;;;;;19.90;12.00;;;8.20;29.40;;;;;;5104393;28;20262;-73
2022/04/05 00:11:58;;;;;;;18.20;11.17;;;8.20;29.50;;;;;;5101689;28;20590;-73
2022/04/05 00:14:24;;;;;;;17.17;11.50;;;8.20;29.80;;;;;;5111779;28;20184;-73
2022/04/05 00:16:50;;;;;;;18.50;11.17;;;8.50;28.60;;;;;;5092090;28;20624;-73
2022/04/05 00:19:15;;;;;;;25.93;12.37;;;8.40;28.90;;;;;;5105550;28;20943;-73
2022/04/05 00:21:41;;;;;;;16.60;10.33;;;8.00;30.20;;;;;;5113709;28;20183;-73
2022/04/05 00:24:07;;;;;;;17.40;10.90;;;7.80;30.00;;;;;;5105718;28;20686;-73
2022/04/05 00:26:34;;;;;;;18.77;11.70;;;8.10;29.60;;;;;;5114619;28;20504;-73
2022/04/05 00:29:00;;;;;;;23.58;13.68;;;8.10;29.60;;;;;;5108993;28;20412;-73
2022/04/05 00:31:25;;;;;;;17.83;10.50;;;8.50;29.40;;;;;;5110949;28;20242;-73
2022/04/05 00:33:51;;;;;;;17.10;10.83;;;8.10;29.60;;;;;;5107368;28;20566;-73
2022/04/05 00:36:17;;;;;;;15.47;10.90;;;7.60;30.80;;;;;;5109867;28;20208;-73
2022/04/05 00:38:42;;;;;;;17.33;10.80;;;7.50;31.20;;;;;;5107158;28;20178;-73
2022/04/05 00:41:08;;;;;;;16.23;10.63;;;7.50;31.20;;;;;;5114591;28;20627;-73
2022/04/05 00:43:34;;;;;;;20.90;11.30;;;7.40;31.10;;;;;;5114742;28;20198;-74
2022/04/05 00:45:59;;;;;;;14.80;10.10;;;7.50;31.20;;;;;;5114169;28;20209;-74
2022/04/05 00:48:49;;;;;;;18.57;11.10;;;7.90;30.30;;;;;;5107984;28;20255;-73
2022/04/05 00:51:16;;;;;;;22.80;10.80;;;7.60;31.30;;;;;;5101789;28;20246;-73
2022/04/05 00:53:52;;;;;;;18.15;10.23;;;7.60;31.30;;;;;;5094042;28;20223;-73
2022/04/05 00:56:19;;;;;;;16.52;10.43;;;8.10;30.00;;;;;;5101931;28;20197;-71
2022/04/05 00:58:58;;;;;;;16.45;10.18;;;7.60;31.30;;;;;;5109946;28;20334;-71
2022/04/05 01:01:27;;;;;;;17.60;10.70;;;7.70;31.30;;;;;;5086484;28;20170;-71
2022/04/05 01:03:53;;;;;;;18.73;11.05;;;8.10;30.00;;;;;;5105286;28;20197;-71
2022/04/05 01:06:31;;;;;;;18.60;10.03;;;7.90;30.20;;;;;;5105373;28;20186;-71
2022/04/05 01:08:57;;;;;;;19.30;11.45;;;8.00;30.80;;;;;;5101470;28;20171;-71
2022/04/05 01:11:23;;;;;;;16.40;10.85;;;8.00;30.10;;;;;;5101783;28;20666;-71
2022/04/05 01:13:49;;;;;;;19.08;11.90;;;7.70;31.30;;;;;;5102372;28;20191;-71
2022/04/05 01:16:16;;;;;;;20.98;11.00;;;7.70;31.30;;;;;;5104017;28;20208;-71
2022/04/05 01:18:41;;;;;;;20.77;10.70;;;8.00;30.70;;;;;;5109018;28;20178;-71
2022/04/05 01:21:07;;;;;;;17.03;10.50;;;7.90;31.10;;;;;;5104381;28;20249;-71
2022/04/05 01:23:33;;;;;;;17.20;11.03;;;8.10;30.60;;;;;;5112740;28;20269;-71
2022/04/05 01:26:00;;;;;;;19.40;11.63;;;8.80;29.40;;;;;;5105303;28;20208;-72
2022/04/05 01:28:26;;;;;;;16.08;11.43;;;8.80;28.90;;;;;;5108609;28;20221;-72
2022/04/05 01:30:52;;;;;;;16.27;10.67;;;8.10;30.60;;;;;;5093638;28;20537;-71
2022/04/05 01:33:19;;;;;;;15.55;9.10;;;7.60;31.60;;;;;;5111755;28;20178;-71
2022/04/05 01:35:45;;;;;;;18.73;11.10;;;7.70;31.30;;;;;;5104788;28;20171;-71
2022/04/05 01:38:12;;;;;;;30.10;12.02;;;7.80;31.40;;;;;;5097050;28;20520;-72
2022/04/05 01:40:38;;;;;;;17.42;11.18;;;7.80;31.40;;;;;;5108624;28;20182;-72
2022/04/05 01:43:04;;;;;;;15.63;10.60;;;7.60;32.00;;;;;;5102106;28;20723;-72
2022/04/05 01:45:30;;;;;;;20.07;11.00;;;8.30;30.90;;;;;;5096550;28;20550;-72
2022/04/05 01:47:56;;;;;;;23.52;10.85;;;8.10;31.10;;;;;;5112817;28;20461;-73
2022/04/05 01:50:21;;;;;;;22.00;10.80;;;7.60;32.80;;;;;;5088214;28;20228;-72
2022/04/05 01:52:47;;;;;;;20.50;11.90;;;8.30;31.30;;;;;;5109340;28;20412;-73
2022/04/05 01:55:13;;;;;;;16.80;9.60;;;8.80;30.10;;;;;;5110129;28;20216;-73
2022/04/05 01:57:39;;;;;;;16.50;11.43;;;7.90;31.60;;;;;;5101678;28;20202;-72
2022/04/05 02:00:07;;;;;;;18.00;10.23;;;7.80;31.80;;;;;;5108539;28;20174;-72
2022/04/05 02:02:33;;;;;;;18.98;10.65;;;7.70;32.70;;;;;;5103766;28;20936;-72
2022/04/05 02:04:58;;;;;;;17.20;10.80;;;7.50;33.20;;;;;;5102552;28;20193;-72
2022/04/05 02:07:24;;;;;;;20.00;10.73;;;7.60;33.70;;;;;;5096897;28;20200;-72
2022/04/05 02:09:50;;;;;;;17.60;11.60;;;7.90;32.00;;;;;;5101091;28;20175;-73
2022/04/05 02:12:17;;;;;;;19.33;11.17;;;8.20;31.80;;;;;;5107660;28;20181;-73
2022/04/05 02:14:43;;;;;;;21.90;11.10;;;8.40;32.00;;;;;;5100465;28;20533;-73
2022/04/05 02:17:09;;;;;;;20.65;11.70;;;8.40;31.70;;;;;;5099989;28;20206;-73
2022/04/05 02:19:36;;;;;;;16.27;11.32;;;7.90;32.10;;;;;;5101282;28;20190;-72
2022/04/05 02:22:03;;;;;;;21.15;10.60;;;7.90;32.60;;;;;;5106286;28;20188;-72
2022/04/05 02:24:28;;;;;;;18.98;11.98;;;8.10;31.80;;;;;;5103567;28;20199;-72
2022/04/05 02:26:54;;;;;;;20.00;12.27;;;8.60;31.20;;;;;;5110363;28;20735;-73
2022/04/05 02:29:20;;;;;;;17.57;11.67;;;8.50;31.50;;;;;;5112067;28;20178;-73
2022/04/05 02:31:46;;;;;;;18.43;11.63;;;8.60;31.30;;;;;;5108866;28;20201;-73
2022/04/05 02:34:12;;;;;;;24.53;10.63;;;7.90;32.40;;;;;;5100039;28;20542;-72
2022/04/05 02:36:38;;;;;;;16.13;11.38;;;7.60;33.20;;;;;;5094363;28;20964;-73
2022/04/05 02:39:05;;;;;;;16.42;10.52;;;7.80;33.40;;;;;;5106147;28;20196;-73
2022/04/05 02:41:31;;;;;;;18.23;11.15;;;8.30;32.50;;;;;;5103755;28;20178;-73
2022/04/05 02:43:58;;;;;;;19.55;10.93;;;8.60;31.40;;;;;;5103302;28;20195;-73
2022/04/05 02:46:24;;;;;;;22.80;12.02;;;8.80;31.10;;;;;;5111134;28;20210;-71
2022/04/05 02:48:53;;;;;;;16.40;10.87;;;8.90;30.30;;;;;;5093441;28;20240;-73
2022/04/05 02:51:18;;;;;;;23.60;11.85;;;8.90;30.00;;;;;;5085097;28;20178;-72
2022/04/05 02:53:44;;;;;;;15.10;10.67;;;8.40;31.40;;;;;;5109519;28;20616;-72
2022/04/05 02:56:10;;;;;;;18.57;11.70;;;8.50;31.20;;;;;;5102304;28;20277;-73
2022/04/05 02:58:36;;;;;;;20.00;11.57;;;8.60;31.10;;;;;;5108200;28;20178;-72
2022/04/05 03:01:03;;;;;;;20.35;11.60;;;8.80;30.30;;;;;;5099264;28;20460;-72
2022/04/05 03:03:29;;;;;;;20.98;10.65;;;8.30;31.80;;;;;;5107651;28;20201;-72
2022/04/05 03:05:55;;;;;;;17.87;10.90;;;8.30;31.80;;;;;;5103314;28;20267;-72
2022/04/05 03:08:22;;;;;;;15.90;10.90;;;7.90;32.10;;;;;;5103271;28;20250;-72
2022/04/05 03:10:47;;;;;;;19.20;11.77;;;7.90;32.40;;;;;;5103079;28;20177;-72
2022/04/05 03:13:14;;;;;;;15.00;10.80;;;8.20;31.80;;;;;;5102951;28;20836;-72
2022/04/05 03:15:40;;;;;;;18.60;10.75;;;8.30;31.90;;;;;;5107692;28;20635;-72
2022/04/05 03:18:05;;;;;;;19.40;11.85;;;8.50;32.10;;;;;;5099792;28;20194;-72
2022/04/05 03:20:31;;;;;;;17.03;10.97;;;8.70;31.60;;;;;;5107876;28;20182;-72
2022/04/05 03:23:00;;;;;;;16.05;11.25;;;8.60;32.10;;;;;;5099097;28;20947;-72
2022/04/05 03:25:29;;;;;;;18.02;12.02;;;8.10;32.40;;;;;;5108935;28;20189;-72
2022/04/05 03:27:54;;;;;;;18.52;11.02;;;8.30;33.10;;;;;;5103006;28;20186;-72
2022/04/05 03:30:22;;;;;;;17.13;10.70;;;8.60;32.10;;;;;;5110071;28;20184;-72
2022/04/05 03:32:48;;;;;;;19.65;10.43;;;8.60;32.10;;;;;;5106504;28;20183;-72
2022/04/05 03:35:14;;;;;;;18.15;11.48;;;8.50;32.00;;;;;;5115256;28;20189;-72
2022/04/05 03:37:40;;;;;;;16.85;10.82;;;8.60;31.40;;;;;;5113773;28;20695;-72
2022/04/05 03:40:07;;;;;;;18.57;9.87;;;8.30;31.90;;;;;;5111151;28;20178;-72
2022/04/05 03:42:33;;;;;;;14.93;10.43;;;8.10;32.30;;;;;;5103296;28;20503;-72
2022/04/05 03:44:59;;;;;;;15.18;11.35;;;7.90;32.90;;;;;;5113755;28;20205;-72
2022/04/05 03:47:27;;;;;;;17.33;11.47;;;7.70;33.00;;;;;;5114964;28;20209;-72
2022/04/05 03:49:53;;;;;;;21.88;11.63;;;8.10;32.70;;;;;;5107280;28;21079;-72
2022/04/05 03:52:19;;;;;;;19.77;11.13;;;8.30;31.80;;;;;;5114423;28;20179;-72
2022/04/05 03:54:45;;;;;;;17.85;11.20;;;8.00;32.90;;;;;;5105608;28;20691;-72
2022/04/05 03:57:11;;;;;;;17.13;11.40;;;8.40;31.40;;;;;;5106559;28;20192;-72
2022/04/05 03:59:36;;;;;;;15.90;11.13;;;8.80;30.40;;;;;;5111160;28;20193;-72
2022/04/05 04:02:02;;;;;;;18.43;11.90;;;7.80;32.60;;;;;;5103171;28;20172;-72
2022/04/05 04:04:28;;;;;;;17.40;11.27;;;7.40;33.80;;;;;;5104660;28;20329;-72
2022/04/05 04:06:54;;;;;;;25.47;11.30;;;7.70;34.20;;;;;;5112857;28;20694;-72
2022/04/05 04:09:19;;;;;;;16.10;11.27;;;8.10;32.40;;;;;;5114521;28;20185;-72
2022/04/05 04:11:45;;;;;;;18.13;11.77;;;8.70;32.20;;;;;;5114165;28;20172;-72
2022/04/05 04:14:11;;;;;;;15.60;10.70;;;8.10;31.70;;;;;;5098193;28;20714;-72
2022/04/05 04:16:37;;;;;;;19.25;10.85;;;8.10;32.50;;;;;;5106399;28;20201;-72
2022/04/05 04:19:03;;;;;;;17.63;10.70;;;8.00;32.60;;;;;;5096924;28;20193;-72
2022/04/05 04:21:28;;;;;;;18.70;10.30;;;7.60;33.40;;;;;;5105865;28;20178;-72
2022/04/05 04:23:54;;;;;;;17.60;10.47;;;7.50;33.50;;;;;;5097947;28;20466;-72
2022/04/05 04:26:20;;;;;;;16.30;10.35;;;7.40;34.20;;;;;;5083820;28;20197;-72
2022/04/05 04:28:50;;;;;;;16.23;10.47;;;7.60;33.40;;;;;;5110769;28;20178;-72
2022/04/05 04:31:16;;;;;;;14.20;10.25;;;8.10;32.60;;;;;;5113905;28;20166;-72
2022/04/05 04:33:42;;;;;;;17.00;11.20;;;8.40;31.70;;;;;;5105159;28;20184;-72
2022/04/05 04:36:07;;;;;;;18.30;11.43;;;8.40;31.70;;;;;;5104326;28;20252;-73
2022/04/05 04:38:33;;;;;;;18.50;12.90;;;8.70;30.50;;;;;;5110465;28;20406;-72
2022/04/05 04:40:59;;;;;;;15.20;10.20;;;8.70;30.10;;;;;;5114560;28;20187;-72
2022/04/05 04:43:26;;;;;;;19.40;11.30;;;8.60;30.80;;;;;;5114098;28;20193;-72
2022/04/05 04:45:52;;;;;;;14.93;10.18;;;8.70;30.40;;;;;;5109125;28;20244;-72
2022/04/05 04:48:19;;;;;;;19.33;10.70;;;8.30;31.00;;;;;;5105551;28;20206;-72
2022/04/05 04:50:46;;;;;;;15.55;10.68;;;8.30;31.50;;;;;;5106587;28;20170;-72
2022/04/05 04:53:12;;;;;;;17.38;11.23;;;8.10;31.70;;;;;;5105199;28;20179;-72
2022/04/05 04:55:38;;;;;;;18.10;11.37;;;8.20;31.80;;;;;;5095944;28;20707;-72
2022/04/05 04:58:04;;;;;;;18.33;11.50;;;8.30;33.60;;;;;;5105272;28;20802;-72
2022/04/05 05:00:29;;;;;;;17.30;11.13;;;8.30;33.30;;;;;;5101921;28;20550;-72
2022/04/05 05:02:55;;;;;;;17.57;11.10;;;8.10;33.60;;;;;;5100000;28;20184;-72
2022/04/05 05:05:22;;;;;;;17.43;11.20;;;8.00;33.90;;;;;;5102410;28;20180;-72
2022/04/05 05:07:49;;;;;;;21.38;11.13;;;8.10;35.10;;;;;;5113703;28;20212;-72
2022/04/05 05:10:16;;;;;;;17.52;11.00;;;8.10;33.90;;;;;;5112606;28;20175;-72
2022/04/05 05:12:42;;;;;;;20.27;10.85;;;8.70;32.20;;;;;;5110126;28;20182;-73
2022/04/05 05:15:10;;;;;;;17.60;11.05;;;8.60;32.10;;;;;;5102641;28;20190;-72
2022/04/05 05:17:36;;;;;;;14.27;9.45;;;8.70;32.20;;;;;;5103651;28;20262;-72
2022/04/05 05:20:06;;;;;;;18.13;10.68;;;8.30;32.60;;;;;;5105678;28;20195;-72
2022/04/05 05:22:32;;;;;;;17.77;11.10;;;8.50;33.10;;;;;;5105330;28;20208;-72
2022/04/05 05:24:58;;;;;;;15.50;10.60;;;8.60;32.20;;;;;;5104629;28;20206;-72
2022/04/05 05:27:23;;;;;;;16.00;10.53;;;8.70;32.30;;;;;;5112093;28;20447;-72
2022/04/05 05:29:49;;;;;;;21.80;11.30;;;8.80;32.30;;;;;;5102379;28;20173;-72
2022/04/05 05:32:15;;;;;;;18.67;11.60;;;8.80;31.50;;;;;;5102525;28;20257;-73
2022/04/05 05:34:40;;;;;;;19.17;10.73;;;8.20;33.60;;;;;;5109781;28;20214;-73
2022/04/05 05:37:06;;;;;;;17.43;10.63;;;8.30;34.60;;;;;;5103060;28;20201;-73
2022/04/05 05:39:32;;;;;;;16.13;9.80;;;8.00;34.00;;;;;;5102571;28;20200;-73
2022/04/05 05:41:58;;;;;;;18.20;11.43;;;8.10;33.90;;;;;;5110975;28;20242;-73
2022/04/05 05:44:24;;;;;;;16.73;9.90;;;8.20;33.50;;;;;;5096745;28;20612;-73
2022/04/05 05:46:50;;;;;;;18.93;10.97;;;8.70;31.90;;;;;;5111630;28;20206;-73
2022/04/05 05:49:16;;;;;;;15.15;9.10;;;8.80;32.50;;;;;;5112812;28;20535;-73
2022/04/05 05:51:42;;;;;;;14.60;9.20;;;9.30;31.00;;;;;;5103876;28;20275;-73
2022/04/05 05:54:07;;;;;;;14.93;10.10;;;8.40;32.40;;;;;;5103670;28;20278;-73
2022/04/05 05:56:33;;;;;;;18.50;11.43;;;8.60;32.20;;;;;;5104422;28;20210;-73
2022/04/05 05:58:59;;;;;;;17.70;11.23;;;8.60;32.20;;;;;;5104397;28;20240;-73
2022/04/05 06:01:25;;;;;;;17.10;10.57;;;8.90;31.70;;;;;;5103739;28;20424;-73
2022/04/05 06:03:51;;;;;;;16.57;10.17;;;8.70;31.50;;;;;;5093967;28;20291;-73
2022/04/05 06:06:17;;;;;;;15.93;10.87;;;8.80;31.90;;;;;;5083209;28;20452;-73
2022/04/05 06:08:42;;;;;;;15.25;10.63;;;9.10;30.90;;;;;;5112243;28;20257;-73
2022/04/05 06:11:08;;;;;;;18.83;9.23;;;9.10;30.70;;;;;;5099773;28;20276;-73
2022/04/05 06:13:34;;;;;;;18.10;10.67;;;9.20;31.00;;;;;;5103060;28;20527;-73
2022/04/05 06:16:00;;;;;;;15.57;9.80;;;9.30;30.60;;;;;;5107484;28;20247;-73
2022/04/05 06:18:26;;;;;;;14.40;8.67;;;9.20;31.40;;;;;;5099441;28;20287;-76
2022/04/05 06:20:51;;;;;;;15.77;9.50;;;9.20;33.10;;;;;;5098854;28;20660;-76
2022/04/05 06:23:17;;;;;;;13.33;9.07;;;8.90;32.40;;;;;;5103532;28;20201;-74
2022/04/05 06:25:43;;;;;;;14.13;8.67;;;9.20;32.60;;;;;;5099795;28;20264;-74
2022/04/05 06:28:09;;;;;;;14.38;8.40;;;9.60;31.30;;;;;;5108439;28;20186;-74
2022/04/05 06:30:38;;;;;;;12.80;8.60;;;9.30;31.60;;;;;;5104482;28;20190;-71
2022/04/05 06:33:06;;;;;;;12.32;8.27;;;9.40;31.00;;;;;;5112596;28;20422;-74
2022/04/05 06:35:31;;;;;;;13.57;7.97;;;8.80;33.10;;;;;;5113141;28;20641;-73
2022/04/05 06:37:57;;;;;;;15.07;8.60;;;8.80;32.90;;;;;;5094449;28;20207;-73
2022/04/05 06:40:23;;;;;;;14.43;9.10;;;8.40;34.00;;;;;;5111234;28;20178;-73
2022/04/05 06:42:49;;;;;;;14.23;9.20;;;8.70;33.00;;;;;;5112681;28;20542;-72
2022/04/05 06:45:17;;;;;;;16.50;9.63;;;9.00;32.50;;;;;;5090710;28;20189;-76
2022/04/05 06:47:43;;;;;;;14.90;8.32;;;8.90;32.90;;;;;;5094352;28;20208;-77
2022/04/05 06:50:10;;;;;;;15.60;9.17;;;9.20;32.60;;;;;;5093841;28;20195;-78
2022/04/05 06:52:38;;;;;;;13.25;8.40;;;9.40;31.90;;;;;;5094292;28;20411;-75
2022/04/05 06:55:05;;;;;;;15.43;8.82;;;9.40;31.70;;;;;;5092610;28;20190;-75
2022/04/05 06:57:31;;;;;;;14.73;8.77;;;9.70;31.00;;;;;;5102750;28;20218;-75
2022/04/05 06:59:56;;;;;;;12.03;8.80;;;10.40;29.10;;;;;;5104914;28;20277;-74
2022/04/05 07:02:22;;;;;;;12.07;8.23;;;10.10;29.20;;;;;;5093558;28;20185;-74
2022/04/05 07:04:48;;;;;;;14.50;9.20;;;9.70;30.80;;;;;;5110795;28;20216;-74
2022/04/05 07:07:13;;;;;;;16.70;9.20;;;9.60;31.60;;;;;;5104849;28;20208;-74
2022/04/05 07:09:39;;;;;;;15.97;8.73;;;9.60;31.40;;;;;;5109513;28;20259;-75
2022/04/05 07:12:07;;;;;;;12.07;7.93;;;10.00;30.10;;;;;;5108310;28;20650;-76
2022/04/05 07:14:33;;;;;;;13.93;8.00;;;10.10;29.50;;;;;;5109154;28;20173;-76
2022/04/05 07:16:59;;;;;;;13.43;8.67;;;9.60;31.70;;;;;;5101981;28;20293;-76
2022/04/05 07:19:25;;;;;;;12.70;8.03;;;10.20;29.60;;;;;;5103994;28;20538;-75
2022/04/05 07:21:50;;;;;;;12.97;8.03;;;9.90;30.70;;;;;;5084729;28;20178;-76
2022/04/05 07:24:16;;;;;;;17.30;8.53;;;9.60;31.20;;;;;;5112497;28;20714;-76
2022/04/05 07:26:42;;;;;;;15.00;7.83;;;9.90;30.80;;;;;;5103709;28;20201;-75
2022/04/05 07:29:07;;;;;;;15.63;9.07;;;10.40;29.30;;;;;;5085885;28;20219;-75
2022/04/05 07:31:33;;;;;;;12.40;8.00;;;10.30;29.40;;;;;;5084711;28;20554;-74
2022/04/05 07:33:59;;;;;;;14.00;8.17;;;10.20;29.30;;;;;;5106882;28;20213;-76
2022/04/05 07:36:25;;;;;;;13.20;8.30;;;10.80;28.60;;;;;;5089911;28;20730;-74
2022/04/05 07:38:52;;;;;;;13.20;9.10;;;10.10;29.30;;;;;;5108339;28;20178;-73
2022/04/05 07:41:19;;;;;;;15.18;9.38;;;10.00;29.60;;;;;;5105828;28;20169;-73
2022/04/05 07:43:45;;;;;;;19.27;9.35;;;9.90;30.70;;;;;;5107508;28;20263;-72
2022/04/05 07:46:11;;;;;;;15.23;8.67;;;9.80;31.20;;;;;;5106101;28;20206;-71
2022/04/05 07:48:37;;;;;;;13.20;8.87;;;9.90;31.10;;;;;;5106943;28;20975;-73
2022/04/05 07:51:03;;;;;;;13.30;7.37;;;10.00;30.30;;;;;;5109684;28;20508;-71
2022/04/05 07:53:29;;;;;;;15.83;8.83;;;9.80;31.00;;;;;;5095870;28;20250;-73
2022/04/05 07:55:56;;;;;;;14.23;7.90;;;9.50;32.10;;;;;;5101467;28;20444;-73
2022/04/05 07:58:22;;;;;;;13.43;9.10;;;10.10;31.80;;;;;;5084555;28;20535;-73
2022/04/05 08:00:48;;;;;;;13.67;8.67;;;10.40;29.50;;;;;;5102817;28;20446;-74
2022/04/05 08:03:14;;;;;;;18.00;8.97;;;10.20;30.20;;;;;;5099570;28;20484;-72
2022/04/05 08:05:41;;;;;;;13.80;7.60;;;9.80;32.10;;;;;;5107368;28;20170;-74
2022/04/05 08:08:08;;;;;;;14.20;8.55;;;10.30;30.30;;;;;;5104474;28;20170;-74
2022/04/05 08:10:34;;;;;;;13.53;7.77;;;10.50;30.20;;;;;;5112072;28;20171;-74
2022/04/05 08:13:00;;;;;;;15.43;8.60;;;11.00;29.10;;;;;;5104651;28;20420;-74
2022/04/05 08:15:26;;;;;;;15.67;8.70;;;10.70;29.10;;;;;;5108389;28;20421;-74
2022/04/05 08:17:52;;;;;;;13.27;8.60;;;10.10;30.70;;;;;;5104164;28;20447;-78
2022/04/05 08:20:19;;;;;;;15.50;8.87;;;10.10;31.30;;;;;;5113896;28;20419;-74
2022/04/05 08:22:46;;;;;;;11.60;8.30;;;10.00;31.30;;;;;;5104922;28;20174;-73
2022/04/05 08:25:14;;;;;;;12.60;8.17;;;10.40;30.90;;;;;;5101233;28;20421;-73
2022/04/05 08:27:41;;;;;;;14.67;8.27;;;10.60;30.50;;;;;;5109076;28;20432;-74
2022/04/05 08:30:09;;;;;;;12.83;8.40;;;10.90;29.80;;;;;;5091883;28;20413;-74
2022/04/05 08:32:36;;;;;;;14.80;8.47;;;11.10;29.30;;;;;;5107467;28;20436;-75
2022/04/05 08:35:04;;;;;;;12.60;8.00;;;10.70;29.90;;;;;;5107002;28;20515;-73
2022/04/05 08:37:30;;;;;;;13.40;8.40;;;11.10;30.00;;;;;;5106651;28;20944;-74
2022/04/05 08:39:56;;;;;;;14.63;8.40;;;11.40;29.30;;;;;;5086033;28;20422;-75
2022/04/05 08:42:23;;;;;;;14.03;7.73;;;11.10;29.30;;;;;;5113984;28;20666;-74
2022/04/05 08:44:49;;;;;;;12.00;7.70;;;11.10;29.50;;;;;;5105894;28;20676;-74
2022/04/05 08:47:21;;;;;;;13.33;8.27;;;11.60;28.60;;;;;;5111075;28;20505;-74
2022/04/05 08:49:48;;;;;;;17.77;8.30;;;11.10;29.50;;;;;;5106455;28;20424;-74
2022/04/05 08:52:14;;;;;;;12.27;8.17;;;10.70;30.50;;;;;;5104842;28;20411;-74
2022/04/05 08:54:40;;;;;;;16.77;8.77;;;11.00;31.30;;;;;;5108190;28;20789;-74
2022/04/05 08:57:06;;;;;;;15.20;8.80;;;10.80;30.80;;;;;;5106027;28;20233;-74
2022/04/05 08:59:32;;;;;;;17.40;9.30;;;10.90;31.00;;;;;;5108587;28;20182;-74
2022/04/05 09:01:58;;;;;;;14.20;8.97;;;11.10;31.30;;;;;;5110306;28;20419;-74
2022/04/05 09:04:24;;;;;;;13.63;8.10;;;10.90;33.20;;;;;;5103329;28;20487;-73
2022/04/05 09:06:50;;;;;;;14.00;8.80;;;10.50;35.00;;;;;;5104132;28;20533;-74
2022/04/05 09:09:17;;;;;;;11.20;8.23;;;11.20;33.40;;;;;;5110920;28;20307;-73
2022/04/05 09:11:52;;;;;;;17.33;9.00;;;11.00;33.20;;;;;;5112212;28;20254;-74
2022/04/05 09:14:30;;;;;;;19.77;8.93;;;11.50;33.30;;;;;;5104651;28;20437;-74
2022/04/05 09:17:12;;;;;;;13.37;8.67;;;11.40;33.20;;;;;;5094198;28;20451;-74
2022/04/05 09:19:48;;;;;;;19.80;8.70;;;11.70;31.80;;;;;;5099045;28;20553;-74
2022/04/05 09:22:15;;;;;;;13.30;8.40;;;11.80;33.30;;;;;;5091290;28;20471;-74
2022/04/05 09:24:45;;;;;;;13.30;8.43;;;11.80;33.60;;;;;;5101159;28;20452;-74
2022/04/05 09:27:11;;;;;;;14.50;8.90;;;11.20;36.00;;;;;;5102318;28;20808;-74
2022/04/05 09:29:38;;;;;;;12.33;8.67;;;10.90;37.80;;;;;;5106126;28;20530;-74
2022/04/05 09:32:04;;;;;;;19.27;10.03;;;11.70;34.70;;;;;;5111679;28;20437;-75
2022/04/05 09:34:30;;;;;;;17.17;10.30;;;11.70;35.80;;;;;;5108653;28;20427;-75
2022/04/05 09:36:55;;;;;;;20.33;8.47;;;11.90;34.10;;;;;;5108291;28;20519;-74
2022/04/05 09:39:24;;;;;;;17.03;9.97;;;12.40;33.20;;;;;;5102167;28;20179;-74
2022/04/05 09:42:07;;;;;;;18.17;9.60;;;12.70;32.20;;;;;;5109226;28;20172;-74
2022/04/05 09:44:43;;;;;;;11.17;8.23;;;11.80;34.00;;;;;;5101401;28;20455;-74
2022/04/05 09:47:14;;;;;;;16.20;8.37;;;12.20;32.30;;;;;;5098934;28;20463;-74
2022/04/05 09:49:42;;;;;;;13.27;8.30;;;12.60;32.40;;;;;;5095038;28;20426;-75
2022/04/05 09:52:28;;;;;;;16.60;7.80;;;11.80;34.00;;;;;;5097817;28;20488;-74
2022/04/05 09:54:54;;;;;;;11.03;8.70;;;12.00;32.60;;;;;;5104339;28;20427;-75
2022/04/05 09:57:33;;;;;;;14.13;7.30;;;11.60;33.20;;;;;;5104234;28;20443;-75
2022/04/05 10:00:13;;;;;;;13.60;7.90;;;11.60;33.80;;;;;;5111450;28;20440;-75
2022/04/05 10:03:05;;;;;;;16.07;8.70;;;11.00;34.00;;;;;;5103947;28;20991;-75
2022/04/05 10:05:32;;;;;;;12.40;8.43;;;11.00;35.70;;;;;;5102053;28;20560;-75
2022/04/05 10:07:58;;;;;;;13.33;8.00;;;11.60;33.90;;;;;;5096655;28;20458;-75
2022/04/05 10:10:24;;;;;;;13.03;8.63;;;11.10;33.40;;;;;;5106104;28;20415;-73
2022/04/05 10:12:51;;;;;;;17.50;8.17;;;10.60;36.00;;;;;;5096055;28;20422;-74
2022/04/05 10:15:18;;;;;;;13.20;8.43;;;10.70;35.00;;;;;;5105083;28;20639;-74
2022/04/05 10:17:45;;;;;;;11.23;7.50;;;10.90;35.40;;;;;;5112365;28;20435;-74
2022/04/05 10:20:12;;;;;;;10.97;8.23;;;10.50;36.30;;;;;;5112015;28;20420;-74
2022/04/05 10:22:42;;;;;;;11.60;7.97;;;10.50;35.30;;;;;;5097883;28;20843;-75
2022/04/05 10:25:08;;;;;;;14.73;8.43;;;10.90;35.20;;;;;;5101464;28;20462;-74
2022/04/05 10:27:33;;;;;;;11.67;8.10;;;11.00;34.90;;;;;;5107500;28;20440;-74
2022/04/05 10:30:08;;;;;;;13.03;8.60;;;10.80;34.60;;;;;;5100217;28;20508;-74
2022/04/05 10:32:36;;;;;;;11.17;7.53;;;10.90;34.60;;;;;;5103760;28;20471;-74
2022/04/05 10:35:06;;;;;;;14.40;8.07;;;11.30;33.60;;;;;;5104238;28;20455;-74
2022/04/05 10:37:37;;;;;;;16.80;8.00;;;11.20;33.80;;;;;;5085203;28;20972;-74
2022/04/05 10:40:02;;;;;;;14.30;8.50;;;11.50;33.40;;;;;;5084659;28;20430;-74
2022/04/05 10:42:35;;;;;;;11.40;8.00;;;11.40;34.00;;;;;;5102853;28;20519;-74
2022/04/05 10:45:23;;;;;;;14.50;8.43;;;11.40;34.00;;;;;;5111057;28;20202;-75
2022/04/05 10:48:12;;;;;;;11.60;8.10;;;12.00;32.80;;;;;;5100332;28;20454;-74
2022/04/05 10:50:39;;;;;;;12.87;8.17;;;11.50;33.10;;;;;;5109466;28;20464;-75
2022/04/05 10:53:15;;;;;;;10.40;7.40;;;11.20;34.50;;;;;;5109942;28;20419;-73
2022/04/05 10:56:02;;;;;;;15.53;7.63;;;11.10;34.60;;;;;;5110785;28;20420;-74
2022/04/05 10:58:32;;;;;;;12.60;7.80;;;10.60;36.40;;;;;;5103527;28;20407;-75
2022/04/05 11:01:22;;;;;;;17.87;7.93;;;11.00;35.90;;;;;;5103034;28;20553;-74
2022/04/05 11:04:12;;;;;;;10.73;7.40;;;10.80;36.50;;;;;;5101614;28;20456;-74
2022/04/05 11:06:59;;;;;;;18.43;7.43;;;10.90;36.10;;;;;;5110669;28;20451;-75
2022/04/05 11:09:32;;;;;;;11.30;7.90;;;11.20;35.50;;;;;;5103294;28;20791;-75
2022/04/05 11:12:02;;;;;;;11.23;7.70;;;11.00;37.30;;;;;;5103583;28;20525;-74
2022/04/05 11:14:38;;;;;;;11.83;8.10;;;11.90;36.10;;;;;;5104028;28;20440;-75
2022/04/05 11:17:06;;;;;;;10.13;7.30;;;11.40;35.50;;;;;;5102596;28;20480;-75
2022/04/05 11:19:39;;;;;;;14.43;8.20;;;11.30;35.70;;;;;;5102539;28;20416;-75
2022/04/05 11:22:20;;;;;;;11.97;7.00;;;11.60;35.80;;;;;;5110159;28;20422;-76
2022/04/05 11:25:06;;;;;;;15.47;6.70;;;12.10;34.30;;;;;;5110140;28;20455;-75
2022/04/05 11:27:46;;;;;;;14.67;7.47;;;12.20;33.90;;;;;;5099794;28;20957;-74
2022/04/05 11:30:37;;;;;;;9.40;6.57;;;11.70;34.90;;;;;;5097554;28;20411;-72
2022/04/05 11:33:33;;;;;;;11.20;6.73;;;11.00;37.70;;;;;;5101180;28;20416;-73
2022/04/05 11:36:04;;;;;;;20.27;8.10;;;11.00;39.00;;;;;;5092432;28;20448;-74
2022/04/05 11:38:35;;;;;;;10.40;7.33;;;10.70;39.70;;;;;;5110205;28;20408;-75
2022/04/05 11:41:08;;;;;;;16.17;6.77;;;10.80;38.90;;;;;;5081139;28;20413;-74
2022/04/05 11:43:35;;;;;;;11.50;7.40;;;10.90;39.40;;;;;;5110490;28;20498;-75
2022/04/05 11:46:13;;;;;;;13.47;7.03;;;11.10;38.70;;;;;;5106559;28;20568;-74
2022/04/05 11:49:00;;;;;;;14.90;8.10;;;10.60;40.60;;;;;;5114548;28;20940;-74
2022/04/05 11:51:35;;;;;;;8.80;6.80;;;11.30;39.00;;;;;;5104076;28;20415;-75
2022/04/05 11:54:11;;;;;;;10.00;6.73;;;11.10;39.30;;;;;;5107984;28;20454;-75
2022/04/05 11:56:41;;;;;;;12.37;7.00;;;11.20;39.20;;;;;;5106490;28;20532;-74
2022/04/05 11:59:08;;;;;;;8.97;6.57;;;11.40;38.60;;;;;;5115217;28;20451;-74
2022/04/05 12:01:37;;;;;;;12.20;6.77;;;11.50;38.00;;;;;;5114893;28;21012;-73
2022/04/05 12:04:08;;;;;;;13.03;6.77;;;11.70;37.80;;;;;;5096347;28;20997;-73
2022/04/05 12:06:38;;;;;;;13.63;7.40;;;12.10;36.90;;;;;;5105930;28;20488;-74
2022/04/05 12:09:08;;;;;;;11.40;6.50;;;11.50;38.10;;;;;;5111496;28;20419;-75
2022/04/05 12:11:37;;;;;;;11.90;7.27;;;11.90;37.40;;;;;;5104327;28;20471;-75
2022/04/05 12:14:11;;;;;;;12.70;7.43;;;11.80;38.50;;;;;;5103112;28;20428;-75
2022/04/05 12:17:03;;;;;;;13.80;7.00;;;12.60;35.50;;;;;;5106968;28;20533;-74
2022/04/05 12:19:34;;;;;;;13.97;7.10;;;12.20;36.10;;;;;;5090658;28;20421;-76
2022/04/05 12:22:11;;;;;;;10.60;7.40;;;11.90;37.80;;;;;;5111951;28;20412;-76
2022/04/05 12:24:42;;;;;;;11.10;7.10;;;12.40;36.00;;;;;;5109106;28;20514;-76
2022/04/05 12:27:08;;;;;;;12.20;6.70;;;12.80;35.00;;;;;;5110188;28;20534;-76
2022/04/05 12:29:41;;;;;;;11.63;6.93;;;13.10;35.20;;;;;;5107264;28;21138;-75
2022/04/05 12:32:10;;;;;;;12.20;7.40;;;13.60;33.80;;;;;;5087090;28;20198;-74
2022/04/05 12:34:35;;;;;;;14.80;7.50;;;13.70;33.80;;;;;;5109568;28;20562;-75
2022/04/05 12:37:03;;;;;;;9.60;6.40;;;13.10;35.20;;;;;;5106705;28;21050;-75
2022/04/05 12:39:54;;;;;;;12.63;6.90;;;12.40;36.80;;;;;;5108036;28;20433;-75
2022/04/05 12:42:20;;;;;;;9.20;6.90;;;12.20;39.70;;;;;;5108908;28;20934;-75
2022/04/05 12:44:55;;;;;;;8.90;6.00;;;12.60;36.70;;;;;;5107287;28;20461;-75